createdAt,value
2019-05-23T00:01:57.468Z,99.90
2019-05-23T00:04:42.571Z,99.90
2019-05-23T00:07:15.551Z,99.90
2019-05-23T00:09:44.416Z,99.90
2019-05-23T00:12:31.206Z,99.90
2019-05-23T00:15:02.299Z,99.90
2019-05-23T00:17:33.311Z,99.90
2019-05-23T00:20:02.456Z,99.90
2019-05-23T00:22:31.257Z,99.90
2019-05-23T00:25:01.015Z,99.90
2019-05-23T00:27:31.903Z,99.90
2019-05-23T00:30:02.297Z,99.90
2019-05-23T00:32:33.055Z,99.90
2019-05-23T00:35:08.515Z,99.90
2019-05-23T00:37:37.327Z,99.90
2019-05-23T00:40:09.232Z,99.90
2019-05-23T00:42:37.771Z,99.90
2019-05-23T00:45:10.116Z,99.90
2019-05-23T00:47:39.558Z,99.90
2019-05-23T00:50:10.771Z,99.90
2019-05-23T00:52:40.485Z,99.90
2019-05-23T00:55:12.939Z,99.90
2019-05-23T00:57:41.943Z,99.90
2019-05-23T01:00:13.287Z,99.90
2019-05-23T01:02:43.110Z,99.90
2019-05-23T01:05:13.560Z,99.90
2019-05-23T01:07:44.781Z,99.90
2019-05-23T01:10:16.482Z,99.90
2019-05-23T01:12:45.831Z,99.90
2019-05-23T01:15:16.626Z,99.90
2019-05-23T01:17:46.292Z,99.90
2019-05-23T01:20:19.318Z,99.90
2019-05-23T01:22:49.080Z,99.90
2019-05-23T01:25:21.159Z,99.90
2019-05-23T01:27:50.401Z,99.90
2019-05-23T01:30:27.612Z,99.90
2019-05-23T01:32:57.859Z,99.90
2019-05-23T01:35:28.007Z,99.90
2019-05-23T01:37:57.103Z,99.90
2019-05-23T01:40:27.539Z,99.90
2019-05-23T01:42:56.998Z,99.90
2019-05-23T01:45:27.477Z,99.90
2019-05-23T01:47:56.326Z,99.90
2019-05-23T01:50:26.491Z,99.90
2019-05-23T01:52:55.670Z,99.90
2019-05-23T01:55:24.395Z,99.90
2019-05-23T01:57:53.895Z,99.90
2019-05-23T02:00:24.840Z,99.90
2019-05-23T02:02:55.071Z,99.90
2019-05-23T02:05:25.035Z,99.90
2019-05-23T02:07:54.905Z,99.90
2019-05-23T02:10:24.369Z,99.90
2019-05-23T02:12:53.819Z,99.90
2019-05-23T02:15:23.543Z,99.90
2019-05-23T02:17:52.735Z,99.90
2019-05-23T02:20:22.403Z,99.90
2019-05-23T02:22:51.857Z,99.90
2019-05-23T02:25:23.205Z,99.90
2019-05-23T02:27:53.425Z,99.90
2019-05-23T02:30:34.123Z,99.90
2019-05-23T02:32:53.272Z,99.90
2019-05-23T02:35:23.605Z,99.90
2019-05-23T02:37:59.756Z,99.90
2019-05-23T02:40:42.263Z,99.90
2019-05-23T02:43:21.744Z,99.90
2019-05-23T02:45:55.612Z,99.90
2019-05-23T02:48:25.799Z,99.90
2019-05-23T02:51:07.067Z,99.90
2019-05-23T02:53:40.616Z,99.90
2019-05-23T02:56:12.269Z,99.90
2019-05-23T02:59:01.933Z,99.90
2019-05-23T03:01:50.044Z,99.90
2019-05-23T03:04:20.990Z,99.90
2019-05-23T03:06:52.072Z,99.90
2019-05-23T03:09:24.025Z,99.90
2019-05-23T03:11:56.655Z,99.90
2019-05-23T03:14:27.339Z,99.90
2019-05-23T03:16:58.936Z,99.90
2019-05-23T03:19:36.984Z,99.90
2019-05-23T03:22:46.625Z,99.90
2019-05-23T03:25:35.572Z,99.90
2019-05-23T03:28:07.645Z,99.90
2019-05-23T03:30:40.636Z,99.90
2019-05-23T03:33:13.154Z,99.90
2019-05-23T03:36:00.555Z,99.90
2019-05-23T03:38:29.512Z,99.90
2019-05-23T03:40:59.199Z,99.90
2019-05-23T03:43:28.225Z,99.90
2019-05-23T03:46:02.511Z,99.90
2019-05-23T03:48:31.791Z,99.90
2019-05-23T03:51:03.135Z,99.90
2019-05-23T03:53:32.139Z,99.90
2019-05-23T03:56:01.150Z,99.90
2019-05-23T03:58:29.971Z,99.90
2019-05-23T04:01:00.327Z,99.90
2019-05-23T04:03:29.922Z,99.90
2019-05-23T04:05:59.133Z,99.90
2019-05-23T04:08:28.331Z,99.90
2019-05-23T04:10:58.223Z,99.90
2019-05-23T04:13:27.359Z,99.90
2019-05-23T04:15:55.844Z,99.90
2019-05-23T04:18:25.128Z,99.90
2019-05-23T04:20:54.661Z,99.90
2019-05-23T04:23:23.357Z,99.90
2019-05-23T04:25:51.949Z,99.90
2019-05-23T04:28:20.995Z,99.90
2019-05-23T04:30:49.937Z,99.90
2019-05-23T04:33:18.826Z,99.90
2019-05-23T04:35:48.047Z,99.90
2019-05-23T04:38:16.840Z,99.90
2019-05-23T04:40:45.675Z,99.90
2019-05-23T04:43:14.618Z,99.90
2019-05-23T04:45:43.513Z,99.90
2019-05-23T04:48:12.509Z,99.90
2019-05-23T04:50:41.411Z,99.90
2019-05-23T04:53:10.571Z,99.90
2019-05-23T04:55:39.440Z,99.90
2019-05-23T04:58:08.011Z,99.90
2019-05-23T05:00:36.647Z,99.90
2019-05-23T05:03:06.703Z,99.90
2019-05-23T05:05:35.691Z,99.90
2019-05-23T05:08:04.785Z,99.90
2019-05-23T05:10:34.707Z,99.90
2019-05-23T05:13:03.779Z,99.90
2019-05-23T05:15:33.228Z,99.90
2019-05-23T05:18:02.628Z,99.90
2019-05-23T05:20:31.173Z,99.90
2019-05-23T05:22:59.943Z,99.90
2019-05-23T05:25:29.235Z,99.90
2019-05-23T05:27:58.515Z,99.90
2019-05-23T05:30:27.315Z,99.90
2019-05-23T05:32:57.024Z,99.90
2019-05-23T05:35:27.190Z,99.90
2019-05-23T05:37:56.177Z,99.90
2019-05-23T05:40:24.967Z,99.90
2019-05-23T05:42:54.343Z,99.90
2019-05-23T05:45:22.872Z,99.90
2019-05-23T05:47:51.344Z,99.90
2019-05-23T05:50:20.749Z,99.90
2019-05-23T05:52:49.912Z,99.90
2019-05-23T05:55:18.722Z,99.90
2019-05-23T05:57:47.328Z,99.90
2019-05-23T06:00:19.258Z,99.90
2019-05-23T06:03:03.734Z,99.90
2019-05-23T06:05:29.151Z,99.90
2019-05-23T06:07:58.540Z,99.90
2019-05-23T06:10:29.288Z,99.90
2019-05-23T06:12:58.072Z,99.90
2019-05-23T06:15:27.294Z,99.90
2019-05-23T06:17:55.844Z,99.90
2019-05-23T06:20:24.370Z,99.90
2019-05-23T06:22:52.979Z,99.90
2019-05-23T06:25:22.049Z,99.90
2019-05-23T06:27:50.927Z,99.90
2019-05-23T06:30:20.894Z,99.90
2019-05-23T06:32:49.455Z,99.90
2019-05-23T06:35:17.979Z,99.90
2019-05-23T06:37:46.908Z,99.90
2019-05-23T06:40:15.948Z,99.90
2019-05-23T06:42:44.940Z,99.90
2019-05-23T06:45:14.428Z,99.90
2019-05-23T06:47:42.892Z,99.90
2019-05-23T06:50:16.130Z,99.90
2019-05-23T06:52:45.118Z,99.90
2019-05-23T06:55:13.726Z,99.90
2019-05-23T06:57:42.506Z,99.90
2019-05-23T07:00:13.436Z,99.90
2019-05-23T07:02:42.700Z,98.70
2019-05-23T07:05:11.303Z,99.90
2019-05-23T07:07:41.536Z,99.90
2019-05-23T07:10:10.143Z,99.90
2019-05-23T07:12:38.684Z,82.70
2019-05-23T07:15:08.668Z,99.90
2019-05-23T07:17:38.357Z,99.90
2019-05-23T07:20:07.766Z,99.90
2019-05-23T07:22:36.769Z,99.90
2019-05-23T07:25:07.447Z,99.60
2019-05-23T07:27:35.904Z,99.90
2019-05-23T07:30:10.724Z,99.90
2019-05-23T07:32:39.031Z,78.60
2019-05-23T07:35:07.992Z,56.40
2019-05-23T07:37:36.515Z,53.50
2019-05-23T07:40:06.755Z,54.90
2019-05-23T07:42:35.497Z,83.60
2019-05-23T07:45:07.522Z,62.10
2019-05-23T07:47:39.903Z,78.30
2019-05-23T07:50:11.067Z,61.90
2019-05-23T07:52:39.806Z,68.20
2019-05-23T07:55:10.517Z,75.00
2019-05-23T07:57:39.411Z,52.70
2019-05-23T08:00:10.236Z,53.80
2019-05-23T08:02:41.300Z,57.00
2019-05-23T08:05:12.132Z,59.10
2019-05-23T08:07:41.679Z,64.90
2019-05-23T08:10:13.423Z,84.10
2019-05-23T08:12:41.952Z,76.30
2019-05-23T08:15:11.498Z,58.00
2019-05-23T08:17:39.971Z,55.30
2019-05-23T08:20:11.150Z,52.80
2019-05-23T08:22:39.687Z,60.80
2019-05-23T08:25:08.678Z,79.40
2019-05-23T08:27:37.371Z,66.00
2019-05-23T08:30:08.917Z,63.40
2019-05-23T08:32:37.623Z,65.10
2019-05-23T08:35:07.208Z,64.30
2019-05-23T08:37:36.871Z,70.80
2019-05-23T08:40:07.444Z,54.70
2019-05-23T08:42:36.339Z,52.30
2019-05-23T08:45:08.368Z,70.30
2019-05-23T08:47:37.040Z,72.60
2019-05-23T08:50:08.312Z,64.00
2019-05-23T08:52:36.865Z,58.50
2019-05-23T08:55:20.224Z,53.30
2019-05-23T08:57:48.748Z,55.30
2019-05-23T09:00:20.647Z,53.10
2019-05-23T09:02:50.297Z,58.60
2019-05-23T09:05:19.487Z,89.50
2019-05-23T09:07:48.104Z,61.80
2019-05-23T09:10:18.308Z,52.60
2019-05-23T09:12:47.787Z,56.20
2019-05-23T09:15:17.010Z,55.90
2019-05-23T09:17:53.028Z,52.80
2019-05-23T09:20:16.988Z,56.40
2019-05-23T09:22:45.596Z,55.60
2019-05-23T09:25:14.733Z,59.50
2019-05-23T09:27:43.273Z,54.20
2019-05-23T09:30:12.427Z,48.50
2019-05-23T09:32:41.870Z,50.10
2019-05-23T09:35:20.859Z,48.60
2019-05-23T09:37:42.440Z,55.40
2019-05-23T09:40:11.279Z,60.80
2019-05-23T09:42:39.760Z,53.90
2019-05-23T09:45:09.057Z,59.40
2019-05-23T09:47:38.087Z,51.10
2019-05-23T09:50:10.576Z,49.90
2019-05-23T09:52:39.043Z,46.70
2019-05-23T09:55:08.049Z,56.20
2019-05-23T09:57:36.523Z,52.60
2019-05-23T10:00:11.332Z,48.70
2019-05-23T10:02:39.879Z,49.80
2019-05-23T10:05:11.548Z,42.50
2019-05-23T10:07:40.499Z,47.00
2019-05-23T10:10:11.767Z,43.80
2019-05-23T10:12:40.648Z,47.60
2019-05-23T10:15:12.211Z,50.70
2019-05-23T10:17:41.200Z,42.00
2019-05-23T10:20:11.092Z,39.90
2019-05-23T10:22:39.638Z,39.30
2019-05-23T10:25:08.612Z,38.60
2019-05-23T10:27:37.159Z,52.20
2019-05-23T10:30:10.050Z,57.60
2019-05-23T10:32:38.595Z,46.80
2019-05-23T10:35:08.098Z,49.30
2019-05-23T10:37:37.171Z,51.50
2019-05-23T10:40:06.354Z,45.80
2019-05-23T10:42:35.432Z,50.70
2019-05-23T10:45:05.914Z,49.10
2019-05-23T10:47:34.427Z,51.50
2019-05-23T10:50:07.650Z,56.70
2019-05-23T10:52:33.932Z,48.10
2019-05-23T10:55:02.462Z,53.00
2019-05-23T10:57:31.495Z,47.90
2019-05-23T10:59:59.939Z,58.80
2019-05-23T11:02:29.085Z,51.70
2019-05-23T11:04:58.636Z,46.30
2019-05-23T11:07:27.806Z,52.30
2019-05-23T11:09:56.797Z,45.90
2019-05-23T11:12:25.676Z,44.80
2019-05-23T11:14:54.484Z,46.60
2019-05-23T11:17:23.279Z,40.80
2019-05-23T11:19:51.831Z,41.00
2019-05-23T11:22:21.167Z,37.80
2019-05-23T11:24:49.965Z,37.60
2019-05-23T11:27:19.987Z,37.30
2019-05-23T11:32:19.943Z,46.20
2019-05-23T11:34:47.579Z,45.10
2019-05-23T11:37:16.381Z,41.20
2019-05-23T11:39:49.726Z,45.30
2019-05-23T11:42:15.101Z,39.40
2019-05-23T11:44:43.643Z,39.40
2019-05-23T11:47:13.132Z,45.00
2019-05-23T11:49:43.797Z,44.40
2019-05-23T11:52:14.086Z,43.30
2019-05-23T11:54:43.345Z,43.30
2019-05-23T11:57:12.674Z,40.60
2019-05-23T11:59:41.492Z,44.60
2019-05-23T12:02:14.852Z,44.00
2019-05-23T12:04:43.640Z,44.00
2019-05-23T12:07:15.036Z,39.60
2019-05-23T12:09:43.902Z,42.50
2019-05-23T12:12:12.799Z,39.40
2019-05-23T12:14:41.785Z,39.00
2019-05-23T12:17:11.605Z,35.90
2019-05-23T12:19:40.120Z,36.10
2019-05-23T12:22:09.299Z,38.30
2019-05-23T12:24:37.862Z,39.00
2019-05-23T12:27:06.388Z,35.50
2019-05-23T12:29:35.796Z,31.50
2019-05-23T12:32:06.063Z,34.00
2019-05-23T12:34:34.888Z,30.90
2019-05-23T12:37:18.139Z,37.90
2019-05-23T12:39:33.814Z,42.30
2019-05-23T12:42:02.335Z,47.00
2019-05-23T12:44:31.187Z,48.80
2019-05-23T12:47:00.507Z,49.20
2019-05-23T12:49:33.438Z,49.20
2019-05-23T12:52:01.947Z,44.60
2019-05-23T12:54:31.053Z,45.40
2019-05-23T12:56:59.792Z,43.90
2019-05-23T12:59:28.864Z,47.70
2019-05-23T13:01:59.037Z,47.60
2019-05-23T13:04:28.132Z,44.80
2019-05-23T13:06:57.080Z,42.30
2019-05-23T13:09:25.871Z,44.90
2019-05-23T13:11:54.781Z,41.50
2019-05-23T13:14:23.587Z,43.20
2019-05-23T13:16:52.455Z,39.40
2019-05-23T13:19:21.004Z,40.70
2019-05-23T13:21:49.532Z,41.10
2019-05-23T13:24:18.426Z,45.70
2019-05-23T13:26:47.045Z,44.90
2019-05-23T13:29:16.003Z,42.40
2019-05-23T13:31:45.008Z,39.10
2019-05-23T13:34:13.463Z,34.90
2019-05-23T13:36:41.931Z,33.60
2019-05-23T13:39:10.663Z,40.00
2019-05-23T13:41:39.848Z,44.70
2019-05-23T13:44:08.500Z,44.50
2019-05-23T13:46:37.448Z,44.90
2019-05-23T13:49:06.355Z,73.20
2019-05-23T13:51:34.900Z,42.60
2019-05-23T13:54:03.736Z,42.30
2019-05-23T13:56:32.207Z,51.00
2019-05-23T13:59:00.903Z,49.70
2019-05-23T14:01:29.621Z,46.90
2019-05-23T14:03:58.224Z,48.30
2019-05-23T14:06:27.116Z,50.00
2019-05-23T14:08:55.645Z,51.20
2019-05-23T14:11:24.255Z,52.30
2019-05-23T14:13:59.591Z,51.20
2019-05-23T14:16:23.067Z,39.20
2019-05-23T14:18:52.072Z,46.00
2019-05-23T14:21:21.319Z,41.40
2019-05-23T14:23:49.771Z,41.20
2019-05-23T14:26:18.826Z,48.90
2019-05-23T14:28:47.657Z,48.80
2019-05-23T14:31:17.871Z,40.80
2019-05-23T14:33:48.313Z,46.80
2019-05-23T14:36:35.219Z,50.80
2019-05-23T14:39:06.988Z,49.40
2019-05-23T14:41:45.422Z,51.60
2019-05-23T14:44:10.471Z,64.60
2019-05-23T14:46:41.889Z,50.90
2019-05-23T14:49:12.808Z,52.00
2019-05-23T14:51:43.023Z,51.70
2019-05-23T14:54:16.500Z,52.60
2019-05-23T14:56:47.029Z,53.50
2019-05-23T14:59:16.054Z,56.20
2019-05-23T15:01:44.852Z,71.00
2019-05-23T15:04:14.008Z,59.80
2019-05-23T15:06:42.772Z,55.40
2019-05-23T15:09:11.348Z,54.10
2019-05-23T15:11:40.419Z,66.80
2019-05-23T15:14:09.208Z,57.40
2019-05-23T15:16:38.009Z,66.80
2019-05-23T15:19:07.452Z,56.30
2019-05-23T15:21:36.212Z,55.10
2019-05-23T15:24:05.436Z,58.10
2019-05-23T15:26:34.320Z,62.40
2019-05-23T15:29:03.109Z,79.90
2019-05-23T15:31:32.323Z,72.80
2019-05-23T15:34:00.873Z,78.30
2019-05-23T15:36:29.678Z,73.00
2019-05-23T15:39:09.101Z,64.00
2019-05-23T15:41:28.661Z,65.30
2019-05-23T15:43:57.507Z,59.70
2019-05-23T15:46:26.084Z,61.60
2019-05-23T15:48:54.558Z,62.70
2019-05-23T15:51:25.001Z,79.00
2019-05-23T15:53:58.196Z,70.90
2019-05-23T15:56:29.696Z,84.30
2019-05-23T15:59:05.799Z,80.80
2019-05-23T16:01:35.904Z,68.60
2019-05-23T16:04:06.654Z,67.30
2019-05-23T16:06:36.442Z,95.30
2019-05-23T16:09:25.397Z,64.60
2019-05-23T16:11:39.750Z,66.10
2019-05-23T16:14:09.001Z,80.80
2019-05-23T16:16:39.297Z,72.30
2019-05-23T16:19:08.379Z,93.30
2019-05-23T16:21:38.578Z,98.60
2019-05-23T16:24:08.163Z,98.90
2019-05-23T16:26:36.678Z,99.90
2019-05-23T16:29:06.363Z,99.90
2019-05-23T16:31:35.152Z,99.90
2019-05-23T16:34:04.443Z,99.90
2019-05-23T16:36:33.671Z,99.90
2019-05-23T16:39:02.561Z,99.90
2019-05-23T16:41:31.021Z,99.90
2019-05-23T16:43:59.578Z,99.90
2019-05-23T16:46:28.107Z,99.90
2019-05-23T16:48:56.643Z,99.90
2019-05-23T16:51:25.410Z,99.90
2019-05-23T16:53:54.336Z,99.90
2019-05-23T16:56:27.453Z,99.90
2019-05-23T16:59:03.544Z,99.90
2019-05-23T17:01:35.831Z,99.90
2019-05-23T17:04:08.644Z,99.90
2019-05-23T17:06:51.416Z,99.90
2019-05-23T17:09:21.703Z,99.90
2019-05-23T17:12:00.898Z,99.90
2019-05-23T17:14:31.158Z,99.90
2019-05-23T17:17:13.296Z,99.90
2019-05-23T17:19:46.558Z,99.90
2019-05-23T17:22:31.823Z,99.90
2019-05-23T17:25:13.869Z,99.90
2019-05-23T17:27:44.491Z,99.90
2019-05-23T17:30:33.569Z,99.90
2019-05-23T17:33:02.955Z,99.90
2019-05-23T17:35:31.529Z,99.90
2019-05-23T17:38:00.311Z,99.90
2019-05-23T17:40:29.743Z,99.90
2019-05-23T17:42:58.628Z,99.90
2019-05-23T17:45:28.657Z,99.90
2019-05-23T17:47:58.260Z,99.90
2019-05-23T17:50:27.375Z,99.90
2019-05-23T17:52:56.256Z,99.90
2019-05-23T17:55:26.595Z,99.90
2019-05-23T17:57:56.903Z,99.90
2019-05-23T18:00:27.269Z,99.90
2019-05-23T18:02:55.747Z,99.90
2019-05-23T18:05:24.627Z,99.90
2019-05-23T18:07:53.540Z,99.90
2019-05-23T18:10:22.730Z,99.90
2019-05-23T18:12:51.847Z,99.90
2019-05-23T18:15:20.837Z,99.90
2019-05-23T18:17:49.614Z,99.90
2019-05-23T18:20:18.449Z,99.90
2019-05-23T18:22:47.170Z,99.90
2019-05-23T18:25:17.338Z,99.90
2019-05-23T18:27:46.051Z,99.90
2019-05-23T18:30:34.850Z,99.90
2019-05-23T18:33:04.324Z,99.90
2019-05-23T18:35:33.086Z,99.90
2019-05-23T18:38:01.862Z,99.90
2019-05-23T18:40:30.866Z,99.90
2019-05-23T18:42:59.743Z,99.90
2019-05-23T18:45:29.096Z,99.90
2019-05-23T18:47:57.942Z,99.90
2019-05-23T18:50:28.340Z,99.90
2019-05-23T18:52:57.659Z,99.90
2019-05-23T18:55:26.907Z,99.90
2019-05-23T18:57:55.383Z,99.90
2019-05-23T19:00:44.569Z,99.90
2019-05-23T19:03:14.582Z,99.90
2019-05-23T19:05:43.345Z,99.90
2019-05-23T19:08:12.140Z,99.90
2019-05-23T19:10:41.211Z,99.90
2019-05-23T19:13:09.756Z,99.90
2019-05-23T19:15:38.459Z,99.90
2019-05-23T19:18:07.835Z,99.90
2019-05-23T19:20:38.974Z,99.90
2019-05-23T19:23:08.989Z,99.90
2019-05-23T19:25:37.511Z,99.90
2019-05-23T19:28:07.971Z,99.90
2019-05-23T19:30:37.103Z,99.90
2019-05-23T19:33:05.580Z,99.90
2019-05-23T19:35:34.113Z,99.90
2019-05-23T19:38:02.978Z,99.90
2019-05-23T19:40:31.725Z,99.90
2019-05-23T19:43:00.186Z,99.90
2019-05-23T19:45:29.274Z,99.90
2019-05-23T19:47:57.815Z,99.90
2019-05-23T19:50:27.980Z,99.90
2019-05-23T19:52:56.454Z,99.90
2019-05-23T19:55:25.175Z,99.90
2019-05-23T19:57:54.595Z,99.90
2019-05-23T20:00:23.601Z,99.90
2019-05-23T20:02:56.636Z,99.90
2019-05-23T20:05:35.660Z,99.90
2019-05-23T20:08:04.852Z,99.90
2019-05-23T20:10:34.703Z,99.90
2019-05-23T20:13:03.419Z,99.90
2019-05-23T20:15:32.047Z,99.90
2019-05-23T20:18:00.571Z,99.90
2019-05-23T20:20:29.788Z,99.90
2019-05-23T20:22:58.345Z,99.90
2019-05-23T20:25:27.084Z,99.90
2019-05-23T20:27:55.820Z,99.90
2019-05-23T20:30:33.552Z,99.90
2019-05-23T20:33:02.075Z,99.90
2019-05-23T20:35:30.896Z,99.90
2019-05-23T20:37:59.692Z,99.90
2019-05-23T20:40:28.518Z,99.90
2019-05-23T20:42:57.275Z,99.90
2019-05-23T20:45:26.176Z,99.90
2019-05-23T20:47:54.628Z,99.90
2019-05-23T20:50:23.447Z,99.90
2019-05-23T20:52:51.899Z,99.90
2019-05-23T20:55:20.375Z,99.90
2019-05-23T20:57:49.240Z,99.90
2019-05-23T21:00:20.165Z,99.90
2019-05-23T21:02:48.992Z,99.90
2019-05-23T21:05:17.519Z,99.90
2019-05-23T21:07:46.640Z,99.90
2019-05-23T21:10:18.196Z,99.90
2019-05-23T21:12:47.071Z,99.90
2019-05-23T21:15:15.967Z,99.90
2019-05-23T21:17:44.776Z,99.90
2019-05-23T21:20:13.674Z,99.90
2019-05-23T21:22:42.200Z,99.90
2019-05-23T21:25:11.007Z,99.90
2019-05-23T21:27:39.486Z,99.90
2019-05-23T21:30:07.963Z,99.90
2019-05-23T21:32:36.492Z,99.90
2019-05-23T21:35:07.385Z,99.90
2019-05-23T21:37:35.850Z,99.90
2019-05-23T21:40:06.095Z,99.90
2019-05-23T21:42:47.355Z,99.90
2019-05-23T21:45:05.931Z,99.90
2019-05-23T21:47:34.408Z,99.90
2019-05-23T21:50:03.923Z,99.90
2019-05-23T21:52:32.399Z,99.90
2019-05-23T21:55:01.283Z,99.90
2019-05-23T21:57:30.172Z,99.90
2019-05-23T21:59:58.627Z,99.90
2019-05-23T22:02:29.409Z,99.90
2019-05-23T22:04:59.571Z,99.90
2019-05-23T22:07:28.041Z,99.90
2019-05-23T22:09:56.499Z,99.90
2019-05-23T22:12:24.979Z,99.90
2019-05-23T22:14:53.714Z,99.90
2019-05-23T22:17:24.204Z,99.90
2019-05-23T22:19:52.830Z,99.90
2019-05-23T22:22:21.307Z,99.90
2019-05-23T22:24:49.767Z,99.90
2019-05-23T22:27:18.398Z,99.90
2019-05-23T22:29:46.973Z,99.90
2019-05-23T22:32:17.469Z,99.90
2019-05-23T22:34:48.001Z,99.90
2019-05-23T22:37:18.146Z,99.90
2019-05-23T22:39:46.600Z,99.90
2019-05-23T22:42:16.015Z,99.90
2019-05-23T22:44:44.471Z,99.90
2019-05-23T22:47:13.396Z,99.90
2019-05-23T22:49:42.199Z,99.90
2019-05-23T22:52:11.091Z,99.90
2019-05-23T22:54:39.543Z,99.90
2019-05-23T22:57:08.029Z,99.90
2019-05-23T22:59:36.861Z,99.90
2019-05-23T23:02:07.384Z,99.90
2019-05-23T23:04:35.831Z,99.90
2019-05-23T23:07:04.664Z,99.90
2019-05-23T23:09:33.120Z,99.90
2019-05-23T23:12:02.043Z,99.90
2019-05-23T23:14:30.500Z,99.90
2019-05-23T23:16:59.323Z,99.90
2019-05-23T23:19:27.774Z,99.90
2019-05-23T23:21:56.264Z,99.90
2019-05-23T23:24:25.161Z,99.90
2019-05-23T23:26:54.085Z,99.90
2019-05-23T23:29:22.563Z,99.90
2019-05-23T23:31:51.091Z,99.90
2019-05-23T23:34:19.707Z,99.90
2019-05-23T23:36:48.439Z,99.90
2019-05-23T23:39:17.232Z,99.90
2019-05-23T23:41:45.691Z,99.90
2019-05-23T23:44:15.195Z,99.90
2019-05-23T23:47:01.463Z,99.90
2019-05-23T23:49:48.370Z,99.90
2019-05-23T23:52:35.432Z,99.90
2019-05-23T23:55:23.872Z,99.90
2019-05-23T23:58:00.784Z,99.90
